Extreme weather reports worldwide

High winds

Station
 
Location
 
Name
 
Wind
Knots
Gust
Knots
Vis
SM
Temp/Dew
C
Baro
inHg
METAR
 
ENDR 40 13/13 29.88 ENDR 100350Z AUTO 22040KT 2900NDV -SHRA BR OVC006/// 13/13 Q1012 RESHRA W///S6
FBU ENFB Oslo, NO Oslo, Fornebu Airport 37 15/13 30.09 ENFB 100350Z AUTO 21037KT 9999NDV BKN016/// BKN067/// 15/13 Q1019 W///S5
LIVC 37 9/5 30.32 LIVC 100355Z AUTO 05037KT //// 09/05 Q1027
ENHE 36 3.11 12/12 29.76 ENHE 100350Z 23036KT 5000 -RA BR OVC005 12/12 Q1008 RESHRA W///S5
ENGC 33 6.21 15/13 30.09 ENGC 100350Z 22033KT 9999 FEW016 BKN070 15/13 Q1019 W12/S/

Station
 
Location
 
Name
 
Wind
Knots
Gust
Knots
Vis
SM
Temp/Dew
C
Baro
inHg
METAR
 
ENQA NO Troll A Platform 31 15/13 30.18 ENQA 100350Z AUTO 19031KT 9999NDV BKN043/// OVC072/// 15/13 Q1022 W22/S4
ENNE 30 12/12 29.73 ENNE 100350Z AUTO 20030KT 7000NDV -RA OVC006/// 12/12 Q1007 W///S5
ENSE 30 14/13 30.09 ENSE 100350Z AUTO 22030KT 9999NDV BKN015/// BKN059/// 14/13 Q1019 W///S/
CWQS 29 12/10 CWQS 100300Z AUTO 33029KT 13/10 RMK AO1 PK WND 33035/0212 SLP188 T01290102 57006
ENOA NO Oseberg A Platform 29 6.21 15/13 30.18 ENOA 100350Z 22029KT 9999 FEW045 BKN070 15/13 Q1022 W///S3
LUR PALU Cape Lisburne, US Cape Lisburne LRRS Airport 28 10 7/3 29.80 PALU 100355Z AUTO 22028KT 10SM SCT042 BKN210 07/03 A2980 RMK AO2 PK WND 23030/0344 SLP091 T00720034
ENQR 27 12/ ENQR 100350Z AUTO 21027KT 9000NDV BKN016/// ///// Q//// W12/S5
ENUN 27 12/11 29.62 ENUN 100350Z AUTO 21027KT 7000NDV -SHRA OVC004/// 12/11 Q1003 W11/S4
WYA YWHA Whyalla, AU Whyalla Airport 26 36 6.21 17/6 29.91 YWHA 100400Z AUTO 35026G36KT 9999 // OVC091 17/06 Q1013
KC83 25 10 20/13 29.94 KC83 100355Z AUTO 25025KT 10SM CLR 20/13 A2994 RMK AO2
CWQK 25 12/ CWQK 100400Z AUTO 26025KT 13/ RMK AO1 PK WND 26026/0356 SLP114 T0128 56009
HKG VHHH Hong Kong, HK Hong Kong International Airport 25 6.21 27/24 29.62 VHHH 100400Z 11025KT 9999 SHRA FEW010CB SCT023 27/24 Q1003 RERA TEMPO 13025G35KT 2000 TSRA +SHRA FEW008 SCT015CB BKN040
UMR YPWR Woomera, AU Woomera Airfield 25 6.21 16/4 29.91 YPWR 100400Z AUTO 01025KT 9999 // SCT076 BKN084 16/04 Q1013
ENHM 24 16/14 30.21 ENHM 100350Z AUTO 22024KT 9999NDV NCD 16/14 Q1023 W15/S/
KUT UGKO Kutaisi, GE Kopitnari Airport 24 34 6.21 27/16 29.68 UGKO 100400Z 08024G34KT CAVOK 27/16 Q1005 NOSIG
CWND 23 28 5/4 CWND 100300Z AUTO 27023G28KT 06/04 RMK AO1 PK WND 27030/0225 SLP047 T00550040 51007
CWWL 23 13/10 CWWL 100300Z AUTO 33023KT 13/11 RMK AO1 PK WND 33028/0217 SLP166 T01340109 56008
AOK LGKP Karpathos Island, GR Karpathos Airport 23 6.21 24/22 29.68 LGKP 100350Z 32023KT CAVOK 24/22 Q1005
OGG PHOG Kahului, US Kahului Airport 23 33 10 29/19 29.96 PHOG 100354Z 08023G33KT 10SM FEW040 29/19 A2996 RMK AO2 PK WND 06034/0329 SLP150 T02940194
CWZN 23 29 13/12 CWZN 100400Z AUTO 04023G29KT 14/12 RMK AO1 PK WND 06032/0313 SLP125 T01360121 53016
ZSE FMEP St Pierre, RE Pierrefonds Airport 23 6.21 20/12 30.24 FMEP 100400Z AUTO 11023KT 9999 FEW049 20/12 Q1024 BECMG 12030G40KT
MFM VMMC Macau, MO Macau International Airport 23 6.21 29/27 29.59 VMMC 100400Z 13023KT 9999 FEW012 SCT030 29/27 Q1002 NOSIG
SYY EGPO Stornoway, GB Stornoway Airport 22 6.21 14/14 30.15 EGPO 100350Z AUTO 20022KT 9999 OVC001/// 14/14 Q1021
AES ENAL Ålesund, NO Ålesund Airport 22 6.21 18/14 30.06 ENAL 100350Z AUTO 22022KT 9999 OVC027/// 18/14 Q1018
VDE GCHI El Hierro Island, ES Hierro Airport 22 6.21 22/19 30.00 GCHI 100400Z AUTO 35022KT 9999 OVC019 22/19 Q1016
FOS YFRT AU Forrest Airport 22 6.21 14/3 29.94 YFRT 100400Z AUTO 29022KT 9999 // SCT042 14/03 Q1014 RF00.0/000.0
FRO ENFL Florø, NO Florø Airport 21 6.21 16/14 30.18 ENFL 100350Z 18021KT 9999 FEW010 BKN042 16/14 Q1022
ENQC NO Troll C Platform 21 14/13 30.15 ENQC 100350Z AUTO 18021KT 9999NDV /// 14/13 Q1021 W///S4
CWRO 21 26 13/ CWRO 100400Z AUTO 28021G26KT 14/ RMK AO1 PK WND 27028/0330 SLP183 T0137 56006
CWXA 21 19/7 CWXA 100400Z AUTO 00021KT 19/07 RMK AO1 SLP216 T01900074 53011
LPA GCLP Gran Canaria Island, ES Gran Canaria Airport 21 6.21 22/17 29.97 GCLP 100400Z 36021KT 9999 FEW025 22/17 Q1015 NOSIG
HND RJTT Ota, Tokyo, JP Tokyo Haneda International Airport 21 6.21 31/26 29.79 RJTT 100400Z 18021KT 9999 FEW015 BKN/// 31/26 Q1009 TEMPO FM0500 20026G36KT RMK 1CU015 A2982
HID YHID Horn Island, AU Horn Island Airport 21 6.21 29/20 29.85 YHID 100400Z AUTO 12021KT 9999 // NCD 29/20 Q1011 RF00.0/000.0
OLP YOLD Olympic Dam, AU Olympic Dam Airport 20 31 6.21 16/5 29.97 YOLD 100314Z AUTO 01020G31KT 9999 // SCT082 16/05 Q1015
RET ENRS NO Røst Airport 20 2.3 13/12 29.73 ENRS 100350Z AUTO 21020KT 3700 VV005 13/12 Q1007
SSJ ENST Alstahaug, NO Sandnessjøen Airport (Stokka) 20 3.11 14/14 29.88 ENST 100350Z 20020KT 5000 RA SCT004 BKN006 14/14 Q1012 RMK WIND 300FT 20023KT
OODQ 20 6.21 26/22 29.41 OODQ 100350Z AUTO 22020KT 9999 SCT023 BKN220 26/22 Q0996 NOSIG
SVA PASA Savoonga, US Savoonga Airport 20 26 10 10/7 30.00 PASA 100356Z AUTO 25020G26KT 10SM FEW018 10/07 A3000 RMK AO2 PK WND 26026/0349 SLP159 T01000072 PNO $
CWAR 20 28 13/12 CWAR 100400Z AUTO 02020G28KT 14/12 RMK AO1 5008 PK WND 02031/0340 SLP122 T01370121 50056
YUB CYUB Tuktoyaktuk, CA Tuktoyaktuk Airport 20 27 15 9/6 29.72 CYUB 100400Z 29020G27KT 15SM BKN015 OVC090 09/06 A2972 RMK SC7AS1 SLP068
VAR LBWN Varna, BG Varna Airport 20 6.21 24/15 29.88 LBWN 100400Z AUTO 03020KT 9999 FEW013/// 24/15 Q1012 NOSIG
LRBO 20 6.21 20/16 30.03 LRBO 100400Z 02020KT 9999 BKN150 20/16 Q1017 BLU BLU
HTI YBHM Hamilton Island, AU Hamilton Island Airport 20 6.21 20/15 30.09 YBHM 100400Z AUTO 14020KT 9999 // SCT026 BKN032 20/15 Q1019
SKN ENSK Hadsel, NO Stokmarknes Skagen Airport 19 6.21 12/8 29.79 ENSK 100350Z 15019KT 9999 -RADZ FEW020 SCT026 BKN035 12/08 Q1009
KMMV Mc Minnville, US Mc Minnville Municipal Airport 19 10 17/13 29.88 KMMV 100353Z AUTO 22019KT 10SM CLR 18/13 A2988 RMK AO2 LTG DSNT S SLP118 T01780133